UAL41 KDEN-EDDM
Flight info
| Callsign | UAL41 |
|---|---|
| Flight time | 2h 18m |
| Altitude | 37000 |
| Route | CHUWY1 CHUWY DCT KEEFF DCT GUDDY DCT VIVID DCT JOYCC DCT DKOTA DCT TADIS DCT 55N083W 60N073W DCT KAGLY/M085F370 DCT CLAVY DCT 65N050W/M085F390 65N040W 64N030W 63N020W DCT RATSU/N0496F390 DCT DEVBI DCT BAMRA DCT LAMRO DCT ARTEX DCT VAXIT/N0491F410 DCT DOSUR DCT HAM M852 DENIX DCT HLZ DCT SODRO/N0501F310 T703 LULAR/N0504F300 T105 LANDU LANDU2B |
| Aircraft | B78X/H-SDE1E2E3FGHIJ2J3J4J5M1RWXY/LB1D1 |
Departure
| Time | 2026-05-05 01:02 |
|---|---|
| Airport | Denver International Airport (KDEN) |
Arrival
| Time | 2026-05-05 03:20 |
|---|---|
| Airport | Munich Airport (EDDM) |
| Time | Latitude | Longitude | Altitude | Speed | Heading |
|---|---|---|---|---|---|
| 2026-05-05 00:37 | 39.85806 | -104.67285 | 5391 ft | 0 kts | 359° |
| 2026-05-05 00:37 | 39.85805 | -104.67285 | 5392 ft | 0 kts | 359° |
| 2026-05-05 00:46 | 39.85804 | -104.67285 | 5392 ft | 0 kts | 359° |
| 2026-05-05 00:48 | 39.85796 | -104.67285 | 5383 ft | 3 kts | 359° |
| 2026-05-05 00:48 | 39.85776 | -104.67285 | 5385 ft | 3 kts | 359° |
| 2026-05-05 00:48 | 39.85756 | -104.67285 | 5384 ft | 3 kts | 359° |
| 2026-05-05 00:49 | 39.85735 | -104.67285 | 5382 ft | 3 kts | 359° |
| 2026-05-05 00:49 | 39.85715 | -104.67285 | 5382 ft | 3 kts | 359° |
| 2026-05-05 00:49 | 39.85695 | -104.67285 | 5382 ft | 3 kts | 359° |
| 2026-05-05 00:49 | 39.85681 | -104.67284 | 5382 ft | 3 kts | 359° |
| 2026-05-05 00:50 | 39.85664 | -104.67284 | 5382 ft | 3 kts | 359° |
| 2026-05-05 00:50 | 39.85644 | -104.67284 | 5382 ft | 3 kts | 359° |
| 2026-05-05 00:50 | 39.85631 | -104.67284 | 5386 ft | 0 kts | 359° |
| 2026-05-05 00:52 | 39.85632 | -104.67284 | 5392 ft | 1 kts | 359° |
| 2026-05-05 00:53 | 39.85648 | -104.67299 | 5383 ft | 4 kts | 316° |
| 2026-05-05 00:53 | 39.85645 | -104.67320 | 5382 ft | 6 kts | 251° |
| 2026-05-05 00:53 | 39.85605 | -104.67391 | 5384 ft | 11 kts | 242° |
| 2026-05-05 00:53 | 39.85592 | -104.67492 | 5392 ft | 12 kts | 267° |
| 2026-05-05 00:54 | 39.85591 | -104.67615 | 5388 ft | 15 kts | 270° |
| 2026-05-05 00:54 | 39.85593 | -104.67755 | 5392 ft | 15 kts | 270° |
| 2026-05-05 00:54 | 39.85595 | -104.67885 | 5392 ft | 15 kts | 271° |
| 2026-05-05 00:54 | 39.85595 | -104.68017 | 5390 ft | 14 kts | 270° |
| 2026-05-05 00:55 | 39.85597 | -104.68132 | 5387 ft | 12 kts | 270° |
| 2026-05-05 00:55 | 39.85597 | -104.68234 | 5386 ft | 11 kts | 270° |
| 2026-05-05 00:55 | 39.85594 | -104.68346 | 5385 ft | 14 kts | 255° |
| 2026-05-05 00:55 | 39.85510 | -104.68402 | 5378 ft | 14 kts | 183° |
| 2026-05-05 00:56 | 39.85418 | -104.68405 | 5378 ft | 13 kts | 180° |
| 2026-05-05 00:56 | 39.85335 | -104.68405 | 5378 ft | 11 kts | 180° |
| 2026-05-05 00:56 | 39.85267 | -104.68404 | 5383 ft | 8 kts | 179° |
| 2026-05-05 00:56 | 39.85232 | -104.68415 | 5384 ft | 4 kts | 208° |
| 2026-05-05 00:57 | 39.85212 | -104.68474 | 5376 ft | 12 kts | 257° |
| 2026-05-05 00:57 | 39.85205 | -104.68600 | 5374 ft | 17 kts | 268° |
| 2026-05-05 00:57 | 39.85202 | -104.68776 | 5352 ft | 22 kts | 269° |
| 2026-05-05 00:57 | 39.85197 | -104.68986 | 5357 ft | 22 kts | 268° |
| 2026-05-05 00:58 | 39.85199 | -104.69193 | 5353 ft | 24 kts | 272° |
| 2026-05-05 00:58 | 39.85202 | -104.69412 | 5347 ft | 25 kts | 271° |
| 2026-05-05 00:58 | 39.85203 | -104.69501 | 5344 ft | 6 kts | 270° |
| 2026-05-05 00:58 | 39.85206 | -104.69613 | 5342 ft | 11 kts | 282° |
| 2026-05-05 00:59 | 39.85236 | -104.69652 | 5340 ft | 2 kts | 339° |
| 2026-05-05 00:59 | 39.85254 | -104.69657 | 5342 ft | 0 kts | 353° |
| 2026-05-05 00:59 | 39.85257 | -104.69656 | 5341 ft | 0 kts | 356° |
| 2026-05-05 00:59 | 39.85258 | -104.69657 | 5341 ft | 0 kts | 356° |
| 2026-05-05 01:00 | 39.85257 | -104.69657 | 5341 ft | 0 kts | 356° |
| 2026-05-05 01:00 | 39.85257 | -104.69656 | 5341 ft | 0 kts | 356° |
| 2026-05-05 01:00 | 39.85272 | -104.69657 | 5341 ft | 9 kts | 358° |
| 2026-05-05 01:00 | 39.85517 | -104.69659 | 5346 ft | 66 kts | 0° |
| 2026-05-05 01:01 | 39.86203 | -104.69649 | 5340 ft | 130 kts | 0° |
| 2026-05-05 01:01 | 39.87284 | -104.69637 | 5345 ft | 183 kts | 0° |
| 2026-05-05 01:01 | 39.88699 | -104.69604 | 5534 ft | 219 kts | 3° |
| 2026-05-05 01:01 | 39.90356 | -104.69573 | 5991 ft | 255 kts | 1° |
| 2026-05-05 01:02 | 39.92074 | -104.69562 | 7293 ft | 247 kts | 359° |
| 2026-05-05 01:02 | 39.93824 | -104.69573 | 8033 ft | 257 kts | 1° |
| 2026-05-05 01:02 | 39.95649 | -104.69521 | 8749 ft | 265 kts | 2° |
| 2026-05-05 01:02 | 39.97527 | -104.69454 | 9481 ft | 274 kts | 3° |
| 2026-05-05 01:03 | 39.99542 | -104.69395 | 9880 ft | 296 kts | 2° |
| 2026-05-05 01:03 | 40.01549 | -104.69346 | 10949 ft | 295 kts | 1° |
| 2026-05-05 01:03 | 40.03659 | -104.69128 | 11420 ft | 315 kts | 17° |
| 2026-05-05 01:03 | 40.05684 | -104.67817 | 11883 ft | 337 kts | 31° |
| 2026-05-05 01:04 | 40.07711 | -104.66112 | 12395 ft | 354 kts | 33° |
| 2026-05-05 01:04 | 40.11919 | -104.62474 | 14038 ft | 369 kts | 31° |
| 2026-05-05 01:04 | 40.14101 | -104.60680 | 14880 ft | 373 kts | 31° |
| 2026-05-05 01:05 | 40.16306 | -104.58834 | 15731 ft | 378 kts | 31° |
| 2026-05-05 01:05 | 40.18493 | -104.56976 | 16558 ft | 382 kts | 31° |
| 2026-05-05 01:05 | 40.20738 | -104.55078 | 17380 ft | 387 kts | 31° |
| 2026-05-05 01:05 | 40.23028 | -104.53154 | 18188 ft | 392 kts | 30° |
| 2026-05-05 01:06 | 40.25330 | -104.51216 | 18869 ft | 397 kts | 30° |
| 2026-05-05 01:06 | 40.27662 | -104.49243 | 19564 ft | 401 kts | 30° |
| 2026-05-05 01:06 | 40.30025 | -104.47243 | 20247 ft | 406 kts | 30° |
| 2026-05-05 01:06 | 40.32409 | -104.45228 | 20915 ft | 410 kts | 30° |
| 2026-05-05 01:07 | 40.34824 | -104.43184 | 21574 ft | 415 kts | 30° |
| 2026-05-05 01:07 | 40.37259 | -104.41120 | 22216 ft | 419 kts | 30° |
| 2026-05-05 01:07 | 40.39719 | -104.39032 | 22840 ft | 423 kts | 30° |
| 2026-05-05 01:07 | 40.42206 | -104.36921 | 23466 ft | 428 kts | 30° |
| 2026-05-05 01:08 | 40.44716 | -104.34788 | 23967 ft | 432 kts | 30° |
| 2026-05-05 01:08 | 40.47250 | -104.32633 | 24458 ft | 436 kts | 30° |
| 2026-05-05 01:08 | 40.49808 | -104.30455 | 24942 ft | 440 kts | 30° |
| 2026-05-05 01:08 | 40.52391 | -104.28254 | 25429 ft | 444 kts | 29° |
| 2026-05-05 01:09 | 40.55000 | -104.26029 | 25892 ft | 448 kts | 29° |
| 2026-05-05 01:09 | 40.57536 | -104.23706 | 26357 ft | 455 kts | 38° |
| 2026-05-05 01:09 | 40.59797 | -104.20752 | 26793 ft | 462 kts | 44° |
| 2026-05-05 01:09 | 40.61997 | -104.17638 | 27220 ft | 467 kts | 44° |
| 2026-05-05 01:10 | 40.64195 | -104.14470 | 27660 ft | 471 kts | 44° |
| 2026-05-05 01:10 | 40.66417 | -104.11283 | 28093 ft | 475 kts | 44° |
| 2026-05-05 01:10 | 40.68672 | -104.08079 | 28515 ft | 479 kts | 43° |
| 2026-05-05 01:10 | 40.70946 | -104.04839 | 28944 ft | 483 kts | 44° |
| 2026-05-05 01:11 | 40.73230 | -104.01562 | 29352 ft | 487 kts | 44° |
| 2026-05-05 01:11 | 40.75534 | -103.98252 | 29766 ft | 492 kts | 44° |
| 2026-05-05 01:11 | 40.77859 | -103.94920 | 30133 ft | 496 kts | 43° |
| 2026-05-05 01:11 | 40.80208 | -103.91551 | 30449 ft | 500 kts | 43° |
| 2026-05-05 01:12 | 40.82571 | -103.88153 | 30787 ft | 503 kts | 43° |
| 2026-05-05 01:12 | 40.84944 | -103.84733 | 31126 ft | 507 kts | 43° |
| 2026-05-05 01:12 | 40.87335 | -103.81288 | 31454 ft | 510 kts | 42° |
| 2026-05-05 01:12 | 40.89741 | -103.77818 | 31778 ft | 514 kts | 42° |
| 2026-05-05 01:13 | 40.92166 | -103.74315 | 32086 ft | 517 kts | 42° |
| 2026-05-05 01:13 | 40.94568 | -103.70840 | 32421 ft | 520 kts | 41° |
| 2026-05-05 01:13 | 40.97020 | -103.67289 | 32747 ft | 524 kts | 41° |
| 2026-05-05 01:13 | 40.99491 | -103.63708 | 33067 ft | 527 kts | 41° |
| 2026-05-05 01:14 | 41.01970 | -103.60110 | 33391 ft | 530 kts | 41° |
| 2026-05-05 01:14 | 41.04464 | -103.56486 | 33685 ft | 533 kts | 40° |
| 2026-05-05 01:14 | 41.06965 | -103.52847 | 33961 ft | 536 kts | 40° |
| 2026-05-05 01:14 | 41.09480 | -103.49182 | 34212 ft | 538 kts | 40° |
| 2026-05-05 01:15 | 41.12011 | -103.45491 | 34459 ft | 541 kts | 40° |
| 2026-05-05 01:15 | 41.14521 | -103.41826 | 34741 ft | 542 kts | 40° |
| 2026-05-05 01:15 | 41.17051 | -103.38123 | 35085 ft | 542 kts | 40° |
| 2026-05-05 01:15 | 41.19587 | -103.34412 | 35418 ft | 542 kts | 40° |
| 2026-05-05 01:16 | 41.22125 | -103.30693 | 35729 ft | 543 kts | 40° |
| 2026-05-05 01:16 | 41.24659 | -103.26974 | 36042 ft | 543 kts | 40° |
| 2026-05-05 01:16 | 41.27203 | -103.23237 | 36355 ft | 544 kts | 40° |
| 2026-05-05 01:16 | 41.29744 | -103.19499 | 36646 ft | 545 kts | 40° |
| 2026-05-05 01:17 | 41.32292 | -103.15749 | 36854 ft | 548 kts | 40° |
| 2026-05-05 01:17 | 41.34864 | -103.11959 | 36836 ft | 550 kts | 40° |
| 2026-05-05 01:17 | 41.39934 | -103.04458 | 36834 ft | 548 kts | 40° |
| 2026-05-05 01:18 | 41.45040 | -102.96904 | 36828 ft | 549 kts | 40° |
| 2026-05-05 01:18 | 41.50147 | -102.89315 | 36848 ft | 549 kts | 39° |
| 2026-05-05 01:19 | 41.55483 | -102.82753 | 36855 ft | 540 kts | 32° |
| 2026-05-05 01:19 | 41.61130 | -102.76131 | 36854 ft | 540 kts | 32° |
| 2026-05-05 01:20 | 41.66782 | -102.69505 | 36857 ft | 540 kts | 32° |
| 2026-05-05 01:20 | 41.72387 | -102.62903 | 36882 ft | 539 kts | 32° |
| 2026-05-05 01:21 | 41.78019 | -102.56263 | 36890 ft | 539 kts | 32° |
| 2026-05-05 01:21 | 41.83640 | -102.49615 | 36892 ft | 538 kts | 32° |
| 2026-05-05 01:22 | 41.89254 | -102.42963 | 36891 ft | 538 kts | 33° |
| 2026-05-05 01:22 | 41.94848 | -102.36313 | 36893 ft | 537 kts | 33° |
| 2026-05-05 01:23 | 42.00431 | -102.29665 | 36894 ft | 535 kts | 33° |
| 2026-05-05 01:23 | 42.06006 | -102.23008 | 36898 ft | 535 kts | 33° |
| 2026-05-05 01:24 | 42.11563 | -102.16356 | 36899 ft | 534 kts | 33° |
| 2026-05-05 01:24 | 42.17084 | -102.09731 | 36913 ft | 533 kts | 33° |
| 2026-05-05 01:25 | 42.22619 | -102.03074 | 36914 ft | 533 kts | 33° |
| 2026-05-05 01:25 | 42.28147 | -101.96408 | 36918 ft | 532 kts | 33° |
| 2026-05-05 01:26 | 42.33655 | -101.89751 | 36927 ft | 531 kts | 33° |
| 2026-05-05 01:26 | 42.39163 | -101.83077 | 36922 ft | 530 kts | 33° |
| 2026-05-05 01:27 | 42.44618 | -101.76450 | 36914 ft | 530 kts | 33° |
| 2026-05-05 01:27 | 42.49899 | -101.70022 | 36929 ft | 530 kts | 34° |
| 2026-05-05 01:28 | 42.55397 | -101.63312 | 36932 ft | 530 kts | 34° |
| 2026-05-05 01:28 | 42.60886 | -101.56597 | 36932 ft | 531 kts | 34° |
| 2026-05-05 01:29 | 42.66342 | -101.49906 | 36938 ft | 530 kts | 34° |
| 2026-05-05 01:29 | 42.71814 | -101.43178 | 36933 ft | 530 kts | 34° |
| 2026-05-05 01:30 | 42.76399 | -101.37529 | 36934 ft | 531 kts | 34° |
| 2026-05-05 01:30 | 42.81841 | -101.30808 | 36942 ft | 531 kts | 34° |
| 2026-05-05 01:31 | 42.87310 | -101.24036 | 36930 ft | 531 kts | 34° |
| 2026-05-05 01:31 | 42.92780 | -101.17247 | 36938 ft | 532 kts | 34° |
| 2026-05-05 01:32 | 42.98247 | -101.10443 | 36936 ft | 532 kts | 34° |
| 2026-05-05 01:32 | 43.03720 | -101.03617 | 36931 ft | 532 kts | 34° |
| 2026-05-05 01:33 | 43.09153 | -100.96820 | 36914 ft | 532 kts | 34° |
| 2026-05-05 01:33 | 43.14618 | -100.89970 | 36912 ft | 532 kts | 34° |
| 2026-05-05 01:34 | 43.20071 | -100.83114 | 36908 ft | 532 kts | 34° |
| 2026-05-05 01:34 | 43.24946 | -100.76972 | 36907 ft | 532 kts | 34° |
| 2026-05-05 01:35 | 43.29057 | -100.71781 | 36912 ft | 531 kts | 35° |
| 2026-05-05 01:35 | 43.34494 | -100.64900 | 36916 ft | 531 kts | 35° |
| 2026-05-05 01:36 | 43.39932 | -100.58001 | 36916 ft | 532 kts | 35° |
| 2026-05-05 01:36 | 43.45364 | -100.51091 | 36920 ft | 532 kts | 35° |
| 2026-05-05 01:37 | 43.50796 | -100.44162 | 36911 ft | 532 kts | 35° |
| 2026-05-05 01:37 | 43.56226 | -100.37218 | 36906 ft | 532 kts | 35° |
| 2026-05-05 01:38 | 43.61659 | -100.30254 | 36907 ft | 532 kts | 35° |
| 2026-05-05 01:38 | 43.67044 | -100.23333 | 36906 ft | 533 kts | 35° |
| 2026-05-05 01:39 | 43.72471 | -100.16339 | 36905 ft | 533 kts | 35° |
| 2026-05-05 01:39 | 43.77894 | -100.09332 | 36884 ft | 533 kts | 35° |
| 2026-05-05 01:40 | 43.83308 | -100.02319 | 36901 ft | 533 kts | 35° |
| 2026-05-05 01:40 | 43.88556 | -99.95005 | 36883 ft | 539 kts | 40° |
| 2026-05-05 01:41 | 43.93653 | -99.87383 | 36893 ft | 539 kts | 40° |
| 2026-05-05 01:41 | 43.98747 | -99.79727 | 36889 ft | 540 kts | 40° |
| 2026-05-05 01:42 | 44.03812 | -99.72101 | 36890 ft | 540 kts | 40° |
| 2026-05-05 01:42 | 44.08896 | -99.64423 | 36891 ft | 539 kts | 40° |
| 2026-05-05 01:43 | 44.13974 | -99.56734 | 36890 ft | 539 kts | 40° |
| 2026-05-05 01:43 | 44.19050 | -99.49028 | 36879 ft | 539 kts | 40° |
| 2026-05-05 01:44 | 44.24117 | -99.41311 | 36885 ft | 539 kts | 40° |
| 2026-05-05 01:44 | 44.29133 | -99.33599 | 36883 ft | 539 kts | 40° |
| 2026-05-05 01:45 | 44.34166 | -99.25853 | 36884 ft | 538 kts | 40° |
| 2026-05-05 01:45 | 44.39200 | -99.18082 | 36876 ft | 538 kts | 40° |
| 2026-05-05 01:46 | 44.44215 | -99.10317 | 36884 ft | 537 kts | 41° |
| 2026-05-05 01:46 | 44.49211 | -99.02561 | 36886 ft | 536 kts | 41° |
| 2026-05-05 01:47 | 44.54173 | -98.94837 | 36882 ft | 536 kts | 41° |
| 2026-05-05 01:47 | 44.59159 | -98.87054 | 36881 ft | 536 kts | 41° |
| 2026-05-05 01:48 | 44.64138 | -98.79259 | 36873 ft | 536 kts | 41° |
| 2026-05-05 01:48 | 44.69130 | -98.71424 | 36879 ft | 536 kts | 41° |
| 2026-05-05 01:49 | 44.73913 | -98.63894 | 36880 ft | 536 kts | 41° |
| 2026-05-05 01:49 | 44.78320 | -98.56940 | 36875 ft | 536 kts | 41° |
| 2026-05-05 01:50 | 44.83293 | -98.49071 | 36875 ft | 537 kts | 41° |
| 2026-05-05 01:50 | 44.88252 | -98.41201 | 36875 ft | 537 kts | 41° |
| 2026-05-05 01:51 | 44.93206 | -98.33319 | 36862 ft | 536 kts | 41° |
| 2026-05-05 01:51 | 44.98156 | -98.25419 | 36863 ft | 536 kts | 42° |
| 2026-05-05 01:52 | 45.03062 | -98.17569 | 36865 ft | 536 kts | 42° |
| 2026-05-05 01:52 | 45.07989 | -98.09663 | 36869 ft | 535 kts | 42° |
| 2026-05-05 01:53 | 45.12916 | -98.01734 | 36865 ft | 535 kts | 42° |
| 2026-05-05 01:53 | 45.17827 | -97.93808 | 36865 ft | 535 kts | 42° |
| 2026-05-05 01:54 | 45.22707 | -97.85910 | 36861 ft | 536 kts | 42° |
| 2026-05-05 01:54 | 45.27611 | -97.77949 | 36859 ft | 535 kts | 43° |
| 2026-05-05 01:55 | 45.32509 | -97.69978 | 36851 ft | 535 kts | 43° |
| 2026-05-05 01:55 | 45.37419 | -97.62017 | 36841 ft | 533 kts | 38° |
| 2026-05-05 01:56 | 45.42641 | -97.54536 | 36847 ft | 532 kts | 39° |
| 2026-05-05 01:56 | 45.47848 | -97.47026 | 36848 ft | 532 kts | 39° |
| 2026-05-05 01:57 | 45.53021 | -97.39577 | 36844 ft | 532 kts | 39° |
| 2026-05-05 01:57 | 45.58214 | -97.32054 | 36844 ft | 532 kts | 39° |
| 2026-05-05 01:58 | 45.63404 | -97.24530 | 36835 ft | 531 kts | 39° |
| 2026-05-05 01:58 | 45.68582 | -97.16993 | 36828 ft | 530 kts | 39° |
| 2026-05-05 01:59 | 45.73747 | -97.09459 | 36828 ft | 530 kts | 39° |
| 2026-05-05 01:59 | 45.78899 | -97.01920 | 36828 ft | 529 kts | 39° |
| 2026-05-05 02:00 | 45.84044 | -96.94372 | 36834 ft | 529 kts | 40° |
| 2026-05-05 02:00 | 45.89178 | -96.86817 | 36835 ft | 528 kts | 40° |
| 2026-05-05 02:01 | 45.94269 | -96.79305 | 36836 ft | 528 kts | 40° |
| 2026-05-05 02:01 | 45.99390 | -96.71728 | 36837 ft | 528 kts | 40° |
| 2026-05-05 02:02 | 46.04505 | -96.64137 | 36814 ft | 527 kts | 40° |
| 2026-05-05 02:02 | 46.09605 | -96.56550 | 36816 ft | 527 kts | 40° |
| 2026-05-05 02:03 | 46.14709 | -96.48932 | 36815 ft | 528 kts | 40° |
| 2026-05-05 02:03 | 46.19798 | -96.41316 | 36823 ft | 527 kts | 40° |
| 2026-05-05 02:04 | 46.24847 | -96.33739 | 36817 ft | 527 kts | 41° |
| 2026-05-05 02:04 | 46.29385 | -96.26909 | 36825 ft | 527 kts | 41° |
| 2026-05-05 02:05 | 46.34455 | -96.19259 | 36822 ft | 527 kts | 41° |
| 2026-05-05 02:05 | 46.39523 | -96.11590 | 36827 ft | 526 kts | 41° |
| 2026-05-05 02:06 | 46.44579 | -96.03917 | 36825 ft | 526 kts | 41° |
| 2026-05-05 02:06 | 46.49605 | -95.96268 | 36830 ft | 526 kts | 41° |
| 2026-05-05 02:07 | 46.54648 | -95.88569 | 36823 ft | 526 kts | 41° |
| 2026-05-05 02:07 | 46.58387 | -95.82848 | 36813 ft | 525 kts | 41° |
| 2026-05-05 02:08 | 46.63413 | -95.75140 | 36811 ft | 525 kts | 41° |
| 2026-05-05 02:08 | 46.68431 | -95.67419 | 36807 ft | 525 kts | 42° |
| 2026-05-05 02:09 | 46.73442 | -95.59687 | 36800 ft | 525 kts | 42° |
| 2026-05-05 02:09 | 46.78426 | -95.51975 | 36809 ft | 524 kts | 42° |
| 2026-05-05 02:10 | 46.83425 | -95.44217 | 36795 ft | 524 kts | 42° |
| 2026-05-05 02:10 | 46.88416 | -95.36449 | 36782 ft | 524 kts | 42° |
| 2026-05-05 02:11 | 46.93405 | -95.28662 | 36772 ft | 524 kts | 42° |
| 2026-05-05 02:11 | 46.98381 | -95.20872 | 36776 ft | 523 kts | 43° |
| 2026-05-05 02:12 | 47.05831 | -95.09166 | 36781 ft | 523 kts | 43° |
| 2026-05-05 02:13 | 47.10790 | -95.01345 | 36784 ft | 523 kts | 43° |
| 2026-05-05 02:13 | 47.15740 | -94.93517 | 36788 ft | 523 kts | 43° |
| 2026-05-05 02:14 | 47.20686 | -94.85671 | 36790 ft | 523 kts | 43° |
| 2026-05-05 02:14 | 47.25601 | -94.77850 | 36793 ft | 523 kts | 43° |
| 2026-05-05 02:15 | 47.30534 | -94.69979 | 36790 ft | 522 kts | 43° |
| 2026-05-05 02:15 | 47.35457 | -94.62099 | 36795 ft | 522 kts | 43° |
| 2026-05-05 02:16 | 47.40374 | -94.54207 | 36794 ft | 522 kts | 43° |
| 2026-05-05 02:16 | 47.45296 | -94.46283 | 36791 ft | 522 kts | 43° |
| 2026-05-05 02:17 | 47.50172 | -94.38409 | 36795 ft | 522 kts | 44° |
| 2026-05-05 02:17 | 47.55081 | -94.30460 | 36792 ft | 522 kts | 44° |
| 2026-05-05 02:18 | 47.59975 | -94.22510 | 36787 ft | 522 kts | 44° |
| 2026-05-05 02:18 | 47.64034 | -94.15898 | 36786 ft | 522 kts | 44° |
| 2026-05-05 02:19 | 47.68916 | -94.07924 | 36767 ft | 522 kts | 44° |
| 2026-05-05 02:19 | 47.72480 | -94.02088 | 36754 ft | 522 kts | 44° |
| 2026-05-05 02:20 | 47.77353 | -93.94087 | 36737 ft | 522 kts | 44° |
| 2026-05-05 02:20 | 47.82223 | -93.86067 | 36728 ft | 522 kts | 44° |
| 2026-05-05 02:21 | 47.87082 | -93.78041 | 36716 ft | 522 kts | 44° |
| 2026-05-05 02:21 | 47.91940 | -93.69992 | 36719 ft | 522 kts | 44° |
| 2026-05-05 02:22 | 47.96763 | -93.61976 | 36721 ft | 522 kts | 44° |
| 2026-05-05 02:22 | 48.01610 | -93.53897 | 36727 ft | 522 kts | 44° |
| 2026-05-05 02:23 | 48.06447 | -93.45809 | 36740 ft | 522 kts | 45° |
| 2026-05-05 02:23 | 48.11279 | -93.37706 | 36726 ft | 522 kts | 45° |
| 2026-05-05 02:24 | 48.16101 | -93.29593 | 36722 ft | 522 kts | 45° |
| 2026-05-05 02:24 | 48.20927 | -93.21450 | 36720 ft | 522 kts | 45° |
| 2026-05-05 02:25 | 48.25715 | -93.13346 | 36719 ft | 522 kts | 45° |
| 2026-05-05 02:25 | 48.30524 | -93.05181 | 36711 ft | 522 kts | 45° |
| 2026-05-05 02:26 | 48.35326 | -92.97003 | 36709 ft | 522 kts | 45° |
| 2026-05-05 02:26 | 48.40125 | -92.88805 | 36708 ft | 522 kts | 45° |
| 2026-05-05 02:27 | 48.44922 | -92.80585 | 36704 ft | 522 kts | 45° |
| 2026-05-05 02:27 | 48.49702 | -92.72369 | 36701 ft | 522 kts | 46° |
| 2026-05-05 02:28 | 48.54454 | -92.64174 | 36688 ft | 522 kts | 46° |
| 2026-05-05 02:28 | 48.59226 | -92.55919 | 36691 ft | 521 kts | 46° |
| 2026-05-05 02:29 | 48.63989 | -92.47657 | 36687 ft | 521 kts | 46° |
| 2026-05-05 02:29 | 48.68748 | -92.39372 | 36687 ft | 521 kts | 46° |
| 2026-05-05 02:30 | 48.73506 | -92.31064 | 36688 ft | 521 kts | 46° |
| 2026-05-05 02:30 | 48.78222 | -92.22805 | 36677 ft | 521 kts | 46° |
| 2026-05-05 02:31 | 48.82970 | -92.14462 | 36679 ft | 521 kts | 46° |
| 2026-05-05 02:31 | 48.87706 | -92.06114 | 36681 ft | 521 kts | 47° |
| 2026-05-05 02:32 | 48.92429 | -91.97763 | 36674 ft | 521 kts | 47° |
| 2026-05-05 02:32 | 48.97115 | -91.89451 | 36678 ft | 520 kts | 47° |
| 2026-05-05 02:33 | 49.01826 | -91.81069 | 36662 ft | 520 kts | 47° |
| 2026-05-05 02:33 | 49.06529 | -91.72673 | 36657 ft | 520 kts | 47° |
| 2026-05-05 02:34 | 49.11219 | -91.64275 | 36665 ft | 520 kts | 47° |
| 2026-05-05 02:34 | 49.15909 | -91.55848 | 36656 ft | 520 kts | 47° |
| 2026-05-05 02:35 | 49.20555 | -91.47476 | 36656 ft | 519 kts | 47° |
| 2026-05-05 02:35 | 49.25221 | -91.39039 | 36655 ft | 519 kts | 47° |
| 2026-05-05 02:36 | 49.29879 | -91.30590 | 36652 ft | 519 kts | 47° |
| 2026-05-05 02:36 | 49.34530 | -91.22126 | 36649 ft | 519 kts | 48° |
| 2026-05-05 02:37 | 49.39177 | -91.13644 | 36642 ft | 519 kts | 48° |
| 2026-05-05 02:37 | 49.43814 | -91.05151 | 36640 ft | 518 kts | 48° |
| 2026-05-05 02:38 | 49.48442 | -90.96649 | 36633 ft | 519 kts | 48° |
| 2026-05-05 02:38 | 49.53040 | -90.88173 | 36629 ft | 519 kts | 48° |
| 2026-05-05 02:39 | 49.57659 | -90.79630 | 36625 ft | 519 kts | 48° |
| 2026-05-05 02:39 | 49.62274 | -90.71069 | 36620 ft | 519 kts | 48° |
| 2026-05-05 02:40 | 49.66879 | -90.62496 | 36615 ft | 518 kts | 49° |
| 2026-05-05 02:40 | 49.71478 | -90.53908 | 36611 ft | 518 kts | 49° |
| 2026-05-05 02:41 | 49.76074 | -90.45296 | 36606 ft | 518 kts | 49° |
| 2026-05-05 02:41 | 49.80659 | -90.36678 | 36593 ft | 518 kts | 49° |
| 2026-05-05 02:42 | 49.85209 | -90.28096 | 36588 ft | 519 kts | 49° |
| 2026-05-05 02:42 | 49.89780 | -90.19448 | 36587 ft | 519 kts | 49° |
| 2026-05-05 02:43 | 49.94348 | -90.10776 | 36582 ft | 519 kts | 49° |
| 2026-05-05 02:43 | 49.98910 | -90.02102 | 36578 ft | 518 kts | 47° |
| 2026-05-05 02:43 | 50.01485 | -89.98227 | 36590 ft | 515 kts | 35° |
| 2026-05-05 02:44 | 50.04308 | -89.94790 | 36567 ft | 515 kts | 36° |
| 2026-05-05 02:44 | 50.09976 | -89.87988 | 36567 ft | 514 kts | 36° |
| 2026-05-05 02:45 | 50.15236 | -89.81600 | 36563 ft | 514 kts | 36° |
| 2026-05-05 02:45 | 50.20887 | -89.74746 | 36560 ft | 514 kts | 36° |
| 2026-05-05 02:46 | 50.26537 | -89.67861 | 36553 ft | 514 kts | 36° |
| 2026-05-05 02:46 | 50.32174 | -89.60973 | 36552 ft | 514 kts | 36° |
| 2026-05-05 02:47 | 50.37817 | -89.54056 | 36542 ft | 514 kts | 36° |
| 2026-05-05 02:47 | 50.43451 | -89.47129 | 36542 ft | 514 kts | 36° |
| 2026-05-05 02:48 | 50.49074 | -89.40194 | 36535 ft | 514 kts | 37° |
| 2026-05-05 02:48 | 50.53406 | -89.34837 | 36529 ft | 514 kts | 37° |
| 2026-05-05 02:49 | 50.58989 | -89.27913 | 36525 ft | 514 kts | 37° |
| 2026-05-05 02:49 | 50.64393 | -89.21190 | 36521 ft | 513 kts | 37° |
| 2026-05-05 02:50 | 50.69996 | -89.14199 | 36519 ft | 513 kts | 37° |
| 2026-05-05 02:50 | 50.75597 | -89.07188 | 36513 ft | 513 kts | 37° |
| 2026-05-05 02:51 | 50.81195 | -89.00159 | 36500 ft | 513 kts | 37° |
| 2026-05-05 02:51 | 50.86789 | -88.93113 | 36499 ft | 514 kts | 37° |
| 2026-05-05 02:52 | 50.92342 | -88.86096 | 36495 ft | 513 kts | 37° |
| 2026-05-05 02:52 | 50.97921 | -88.79025 | 36489 ft | 513 kts | 37° |
| 2026-05-05 02:53 | 51.03505 | -88.71922 | 36481 ft | 513 kts | 37° |
| 2026-05-05 02:53 | 51.09075 | -88.64819 | 36477 ft | 513 kts | 38° |
| 2026-05-05 02:54 | 51.14654 | -88.57679 | 36475 ft | 513 kts | 38° |
| 2026-05-05 02:54 | 51.20179 | -88.50586 | 36467 ft | 513 kts | 38° |
| 2026-05-05 02:55 | 51.25518 | -88.43710 | 36456 ft | 513 kts | 38° |
| 2026-05-05 02:55 | 51.31047 | -88.36565 | 36459 ft | 514 kts | 38° |
| 2026-05-05 02:56 | 51.35994 | -88.30157 | 36443 ft | 514 kts | 38° |
| 2026-05-05 02:56 | 51.41538 | -88.22950 | 36447 ft | 513 kts | 38° |
| 2026-05-05 02:57 | 51.47089 | -88.15713 | 36446 ft | 513 kts | 38° |
| 2026-05-05 02:57 | 51.52634 | -88.08458 | 36444 ft | 513 kts | 38° |
| 2026-05-05 02:58 | 51.58166 | -88.01199 | 36441 ft | 514 kts | 38° |
| 2026-05-05 02:58 | 51.63701 | -87.93910 | 36435 ft | 514 kts | 39° |
| 2026-05-05 02:59 | 51.68766 | -87.87221 | 36430 ft | 514 kts | 39° |
| 2026-05-05 02:59 | 51.74218 | -87.79997 | 36425 ft | 514 kts | 39° |
| 2026-05-05 03:00 | 51.79465 | -87.73023 | 36419 ft | 514 kts | 39° |
| 2026-05-05 03:00 | 49.04014 | 12.52662 | 15501 ft | 311 kts | 205° |
| 2026-05-05 03:04 | 49.02089 | 12.51293 | 15099 ft | 318 kts | 206° |
| 2026-05-05 03:04 | 49.00094 | 12.49860 | 14728 ft | 312 kts | 206° |
| 2026-05-05 03:05 | 48.98163 | 12.48475 | 14537 ft | 300 kts | 205° |
| 2026-05-05 03:05 | 48.96319 | 12.47161 | 14554 ft | 283 kts | 205° |
| 2026-05-05 03:05 | 48.94588 | 12.45926 | 14470 ft | 269 kts | 206° |
| 2026-05-05 03:05 | 48.92914 | 12.44732 | 14262 ft | 263 kts | 205° |
| 2026-05-05 03:06 | 48.91274 | 12.43564 | 13982 ft | 258 kts | 205° |
| 2026-05-05 03:06 | 48.89676 | 12.42425 | 13721 ft | 255 kts | 206° |
| 2026-05-05 03:06 | 48.88076 | 12.41281 | 13505 ft | 251 kts | 205° |
| 2026-05-05 03:06 | 48.86477 | 12.40150 | 13387 ft | 256 kts | 205° |
| 2026-05-05 03:07 | 48.84873 | 12.39010 | 13140 ft | 254 kts | 205° |
| 2026-05-05 03:07 | 48.84865 | 12.39004 | 13135 ft | 254 kts | 205° |
| 2026-05-05 03:07 | 48.83212 | 12.37828 | 12834 ft | 253 kts | 205° |
| 2026-05-05 03:07 | 48.81621 | 12.36700 | 12558 ft | 252 kts | 205° |
| 2026-05-05 03:08 | 48.80052 | 12.35588 | 12284 ft | 252 kts | 205° |
| 2026-05-05 03:08 | 48.78433 | 12.34607 | 12008 ft | 252 kts | 194° |
| 2026-05-05 03:08 | 48.76729 | 12.34002 | 11742 ft | 251 kts | 195° |
| 2026-05-05 03:08 | 48.75042 | 12.33326 | 11470 ft | 250 kts | 195° |
| 2026-05-05 03:09 | 48.73359 | 12.32662 | 11206 ft | 250 kts | 195° |
| 2026-05-05 03:09 | 48.71678 | 12.32014 | 10922 ft | 249 kts | 195° |
| 2026-05-05 03:09 | 48.70001 | 12.31371 | 10632 ft | 248 kts | 195° |
| 2026-05-05 03:09 | 48.68312 | 12.30919 | 10478 ft | 246 kts | 187° |
| 2026-05-05 03:10 | 48.66607 | 12.30535 | 10375 ft | 246 kts | 191° |
| 2026-05-05 03:10 | 48.64903 | 12.30080 | 10123 ft | 248 kts | 190° |
| 2026-05-05 03:10 | 48.63200 | 12.29674 | 9873 ft | 247 kts | 189° |
| 2026-05-05 03:10 | 48.61501 | 12.29293 | 9613 ft | 247 kts | 189° |
| 2026-05-05 03:11 | 48.59823 | 12.28911 | 9374 ft | 246 kts | 189° |
| 2026-05-05 03:11 | 48.58130 | 12.28516 | 9134 ft | 245 kts | 189° |
| 2026-05-05 03:11 | 48.56445 | 12.28125 | 8881 ft | 244 kts | 189° |
| 2026-05-05 03:11 | 48.54758 | 12.27737 | 8640 ft | 244 kts | 189° |
| 2026-05-05 03:12 | 48.53082 | 12.27345 | 8399 ft | 243 kts | 189° |
| 2026-05-05 03:12 | 48.51405 | 12.26962 | 8153 ft | 243 kts | 189° |
| 2026-05-05 03:12 | 48.50300 | 12.26710 | 7996 ft | 243 kts | 189° |
| 2026-05-05 03:12 | 48.48634 | 12.26327 | 7739 ft | 241 kts | 189° |
| 2026-05-05 03:13 | 48.46433 | 12.25818 | 7428 ft | 240 kts | 189° |
| 2026-05-05 03:13 | 48.44792 | 12.25440 | 7181 ft | 237 kts | 189° |
| 2026-05-05 03:13 | 48.43171 | 12.25067 | 7011 ft | 233 kts | 189° |
| 2026-05-05 03:13 | 48.42101 | 12.24817 | 6937 ft | 227 kts | 190° |
| 2026-05-05 03:14 | 48.40726 | 12.23853 | 6767 ft | 220 kts | 220° |
| 2026-05-05 03:14 | 48.39863 | 12.21906 | 6661 ft | 234 kts | 250° |
| 2026-05-05 03:14 | 48.39557 | 12.19480 | 6341 ft | 237 kts | 262° |
| 2026-05-05 03:14 | 48.39362 | 12.17040 | 6021 ft | 226 kts | 263° |
| 2026-05-05 03:15 | 48.39196 | 12.14787 | 5706 ft | 207 kts | 263° |
| 2026-05-05 03:15 | 48.39034 | 12.12707 | 5450 ft | 195 kts | 262° |
| 2026-05-05 03:15 | 48.38888 | 12.10739 | 5179 ft | 178 kts | 262° |
| 2026-05-05 03:15 | 48.38755 | 12.08987 | 4960 ft | 165 kts | 261° |
| 2026-05-05 03:16 | 48.38624 | 12.07312 | 4760 ft | 165 kts | 261° |
| 2026-05-05 03:16 | 48.38499 | 12.05664 | 4545 ft | 155 kts | 262° |
| 2026-05-05 03:16 | 48.38375 | 12.03997 | 4319 ft | 159 kts | 261° |
| 2026-05-05 03:16 | 48.38233 | 12.02314 | 4029 ft | 163 kts | 257° |
| 2026-05-05 03:17 | 48.38108 | 12.00676 | 3935 ft | 164 kts | 263° |
| 2026-05-05 03:17 | 48.37995 | 11.99041 | 3657 ft | 157 kts | 262° |
| 2026-05-05 03:17 | 48.37875 | 11.97407 | 3506 ft | 159 kts | 263° |
| 2026-05-05 03:17 | 48.37749 | 11.95817 | 3310 ft | 154 kts | 263° |
| 2026-05-05 03:18 | 48.37610 | 11.94229 | 3099 ft | 154 kts | 261° |
| 2026-05-05 03:18 | 48.37492 | 11.92631 | 2898 ft | 150 kts | 264° |
| 2026-05-05 03:18 | 48.37444 | 11.91907 | 2821 ft | 152 kts | 264° |
| 2026-05-05 03:18 | 48.37325 | 11.90342 | 2629 ft | 151 kts | 264° |
| 2026-05-05 03:19 | 48.37080 | 11.87231 | 2235 ft | 151 kts | 263° |
| 2026-05-05 03:19 | 48.36968 | 11.85702 | 1985 ft | 148 kts | 262° |
| 2026-05-05 03:19 | 48.36853 | 11.84182 | 1807 ft | 145 kts | 263° |
| 2026-05-05 03:20 | 48.36736 | 11.82686 | 1626 ft | 142 kts | 263° |
| 2026-05-05 03:20 | 48.36629 | 11.81367 | 1491 ft | 111 kts | 263° |
| 2026-05-05 03:20 | 48.36567 | 11.80543 | 1480 ft | 54 kts | 264° |
| 2026-05-05 03:20 | 48.36534 | 11.80115 | 1489 ft | 30 kts | 263° |
| 2026-05-05 03:21 | 48.36501 | 11.79842 | 1478 ft | 31 kts | 249° |
| 2026-05-05 03:21 | 48.36359 | 11.79513 | 1476 ft | 41 kts | 233° |
| 2026-05-05 03:21 | 48.36177 | 11.79295 | 1485 ft | 25 kts | 173° |
| 2026-05-05 03:21 | 48.36005 | 11.79331 | 1485 ft | 25 kts | 173° |
| 2026-05-05 03:22 | 48.35841 | 11.79386 | 1487 ft | 23 kts | 173° |
| 2026-05-05 03:22 | 48.35685 | 11.79413 | 1487 ft | 12 kts | 174° |
| 2026-05-05 03:22 | 48.35623 | 11.79422 | 1491 ft | 6 kts | 176° |
| 2026-05-05 03:22 | 48.35607 | 11.79400 | 1476 ft | 3 kts | 234° |
| 2026-05-05 03:23 | 48.35601 | 11.79363 | 1483 ft | 5 kts | 257° |
| 2026-05-05 03:23 | 48.35599 | 11.79325 | 1482 ft | 1 kts | 263° |
| 2026-05-05 03:23 | 48.35596 | 11.79289 | 1486 ft | 0 kts | 263° |
| 2026-05-05 03:23 | 48.35596 | 11.79286 | 1486 ft | 0 kts | 263° |